Airfield :
LOGIN :

Register | Disclaimer

   EN    FR    IT 

 










Legend :    VFR   Marginal VFR   IFR   Intensive IFR   Very Intensive IFR
Visi :
Ceiling :
>= 8 km
>= 3000ft
5 to 8 km
1000 to 3000 ft
1500m to 5 km
500 to 1000 ft
800 to 1500m
200 to 500 ft
< 800m
< 200 ft
Symbols :   Thunderstorms  Fog  Heavy snow  Heavy precipitations  Wind > 20 kt
SIGMETs :     Misc.  Thunderstorms  Icing  Turbulence  Mountain Waves  Volcanic Ashes







- Airport Elevation : 47 ft
- IATA code : BDS


LIBR - Casale Arpt. Brindisi

CURRENT METAR :
  • 202050Z 20009KT 180V240 8000 -TSRA FEW010CB SCT020 16/12 Q1007

EXPIRED METARs :
  • 202020Z VRB04KT 8000 TS FEW010CB SCT020 17/13 Q1007 RERA
  • 201950Z 23006G20KT 170V290 8000 +TSRA FEW010CB SCT020 19/16 Q1006
  • 201920Z 18005KT 8000 SCT030 19/16 Q1006
  • 201850Z 18008KT 8000 NSC 19/16 Q1006
  • 201820Z 18009KT 8000 NSC 19/16 Q1006

TAF AMD TAF LIBR
Valid from the 20 at 18:00 until the 21 at 18:00 UTC


201727Z 2018/2118 19013KT 9999 SCT030
TEMPO 2018/2021 TSRA
BECMG 2020/2023 28012KT
No reported NOTAMs for that airfield.
5 SIGMETs reported for the Brindisi FIR (LIBB) :
 
Embedded thunderstorms
LIBB SIGMET 17 VALID 202030/202200 LIIB
LIBB BRINDISI FIR EMBD TS FCST S OF LINE N4203 E01344 - N4255 E01541 TOP FL320 STNR NC=
SIGMET 14 cancelation
LIBB SIGMET 16 VALID 201926/202030 LIIB
LIBB BRINDISI FIR CNL SIGMET 14 201830/202030=
Embedded thunderstorms
LIBB SIGMET 15 VALID 201924/202030 LIIB
LIBB BRINDISI FIR EMBD TS FCST S OF LINE N4203 E01344 - N4255 E01541 TOP FL320 STNR NC=
SIGMET 14  CANCELED :
Embedded thunderstorms
LIBB SIGMET 14 VALID 201830/202030 LIIB
LIBB BRINDISI FIR EMBD TS FCST WI N4111 E01512 - N4108 E01631 - N4050 E01729 - N3854 E01807 - N3855 E01712 - N3900 E01627 - N3916 E01609 - N4111 E01512 TOP FL320 STNR NC=
Severe turbulence
LIBB SIGMET 13 VALID 201815/202130 LIIB
LIBB BRINDISI FIR SEV TURB FCST E OF LINE N4212 E01638 - N3855 E01633 FL240/360 MOV N NC=



MET'MAP, your aeronautical weather chart ! - Copyright ORBIFLY December 2007 - Disclaimer

ORBIFLY MET'MAP TEAM :

Programming & Development : Alexandra Zaïnal
Concept & Development : Baudouin d'Aumeries
Co-Development & Prog : Marc-Olivier Méhu
Technical & hardware support : Manuel Goepfert

Contact : metmap@orbifly.com




SOURCES & CREDITS :

   NOAA